AirNav  
 
 1518 users online  

2NH2 Westport Heliport
Litchfield, New Hampshire, USA

GOING TO LITCHFIELD?


FAA INFORMATION EFFECTIVE 22 APRIL 2021

Location

FAA Identifier: 2NH2
Lat/Long: 42-51-17.5500N 071-28-25.4000W
42-51.292500N 071-28.423333W
42.8548750,-71.4737222
(estimated)
Elevation: 205 ft. / 62 m (estimated)
Variation: 16W (2000)
From city: 1 mile N of LITCHFIELD, NH
Time zone: UTC -4 (UTC -5 during Standard Time)
Zip code: 03052

Heliport Operations

Heliport use: Private use. Permission required prior to landing
Activation date: 06/2002
Control tower: no
ARTCC: BOSTON CENTER
FSS: BANGOR FLIGHT SERVICE STATION
Attendance: UNATNDD
Segmented circle: no

Heliport Communications

WX AWOS-3PT at ASH (5 nm S): 125.1 (603-578-0473)
WX ASOS at MHT (5 nm N): 119.55 (603-621-1766)
WX ASOS at LWM (17 nm SE): PHONE 978-687-8017

Nearby radio navigation aids

VOR radial/distance  VOR name  Freq  Var
MHTr275/4.7MANCHESTER VOR/DME114.4015W
LWMr307/18.0LAWRENCE VOR/DME112.5015W
CONr183/22.3CONCORD VOR/DME112.9015W
PSMr260/31.4PEASE VOR/DME116.5016W
GDMr068/31.7GARDNER VOR/DME110.6014W
EENr098/36.2KEENE VORTAC109.4014W
BOSr340/36.7BOSTON VOR/DME112.7016W

 
NDB name  Hdg/Dist  Freq  Var  ID
FITZY118/2.520915WMJ -- .---
ROLLINS248/35.826016WESG . ... --.

Heliport Services

Runway Information

Helipad H1

Dimensions: 100 x 50 ft. / 30 x 15 m
Surface: turf
Traffic pattern: leftleft

Heliport Ownership and Management from official FAA records

Ownership: Privately-owned
Owner: KURT WEST
315 CHARLES BANCROFT HIGHWAY
LITCHFIELD, NH 03052
Phone 603-424-5776
Manager: KURT WEST
315 CHARLES BANCROFT HIGHWAY
LITCHFIELD, NH 03052
Phone 603-424-5776

Additional Remarks

A52-H1 35 FT SLOPES 800 FT NE/SW & NW/SE.
FOR CD CTC BOSTON APCH AT 603-594-5551.

Instrument Procedures

There are no published instrument procedures at 2NH2.

Some nearby airports with instrument procedures:

KASH - Boire Field Airport (5 nm S)
KMHT - Manchester Airport (5 nm N)
KLWM - Lawrence Municipal Airport (17 nm SE)
KCON - Concord Municipal Airport (21 nm N)
KFIT - Fitchburg Municipal Airport (22 nm SW)
 
Loc | Ops | Rwys | IFR | FBO | Links
Com | Nav | Svcs | Stats | Notes
Area around 2NH2 (Westport Heliport)
 
Road maps at: MapQuest Bing Google
 
Aerial photo
No photo
 
Sectional chart

 
Airport distance calculator
Flying to Westport Heliport? Find the distance to fly.

From to 2NH2

Sunrise and sunset
Times for 05-May-2021
 Local
(UTC-4)
 Zulu
(UTC)
Morning civil twilight05:0409:04
Sunrise05:3609:36
Sunset19:5023:50
Evening civil twilight20:2100:21

Current date and time
Zulu (UTC)  05-May-2021 21:00:54
Local (UTC-4)  05-May-2021 17:00:54
 
METAR
KMHT 
5nm N 
052053Z 04004KT 10SM BKN007 OVC015 10/07 A2967 RMK AO2 RAE24 SLP061 P0000 60006 T01000072 55016
KASH 
6nm S 
052038Z 04003KT 10SM OVC010 09/09 A2968 RMK AO2 RAE12 CIG 006V013 P0000
KLWM 
17nm SE 
052054Z 03006KT 10SM -RA OVC007 09/07 A2969 RMK AO2 CIG 006V013 SLP055 6//// T00890072 55008 PNO
TAF
KMHT 
5nm N 
051721Z 0518/0618 00000KT 3SM -RA BR OVC005 FM060400 31005KT 3SM BR OVC010 FM060600 31007KT P6SM BKN020 FM061200 32014G21KT P6SM BKN050
NOTAMs
Click for the latest NOTAMs
NOTAMs are issued by the DoD/FAA and will open in a separate window not controlled by AirNav.

 

 
 

Would you like to see your business listed on this page?

 If your business provides an interesting product or service to pilots, flight crews, aircraft, or users of the Westport Heliport, you should consider listing it here.  To start the listing process, click on the button below
 
Add a business
 

Other Pages about Westport Heliport

Update a link
 
Copyright © AirNav, LLC. All rights reserved. Privacy Policy  Contact